sensor_id;sensor_type;location;lat;lon;timestamp;P1;durP1;ratioP1;P2;durP2;ratioP2
7783;SDS011;19359;51.402;6.778;2023-02-28T00:00:09;10.20;;;4.45;;
7783;SDS011;19359;51.402;6.778;2023-02-28T00:02:38;7.78;;;3.85;;
7783;SDS011;19359;51.402;6.778;2023-02-28T00:05:05;4.43;;;4.05;;
7783;SDS011;19359;51.402;6.778;2023-02-28T00:07:33;7.82;;;4.13;;
7783;SDS011;19359;51.402;6.778;2023-02-28T00:10:00;5.63;;;4.15;;
7783;SDS011;19359;51.402;6.778;2023-02-28T00:12:27;6.00;;;3.78;;
7783;SDS011;19359;51.402;6.778;2023-02-28T00:14:55;6.57;;;4.45;;
7783;SDS011;19359;51.402;6.778;2023-02-28T00:17:22;4.28;;;3.78;;
7783;SDS011;19359;51.402;6.778;2023-02-28T00:19:49;5.25;;;4.07;;
7783;SDS011;19359;51.402;6.778;2023-02-28T00:22:17;8.57;;;4.80;;
7783;SDS011;19359;51.402;6.778;2023-02-28T00:24:45;9.07;;;4.35;;
7783;SDS011;19359;51.402;6.778;2023-02-28T00:27:12;8.70;;;5.00;;
7783;SDS011;19359;51.402;6.778;2023-02-28T00:29:39;8.52;;;5.45;;
7783;SDS011;19359;51.402;6.778;2023-02-28T00:32:08;6.18;;;5.18;;
7783;SDS011;19359;51.402;6.778;2023-02-28T00:34:34;9.02;;;5.22;;
7783;SDS011;19359;51.402;6.778;2023-02-28T00:37:03;8.13;;;5.18;;
7783;SDS011;19359;51.402;6.778;2023-02-28T00:39:30;9.30;;;5.60;;
7783;SDS011;19359;51.402;6.778;2023-02-28T00:41:57;6.28;;;4.80;;
7783;SDS011;19359;51.402;6.778;2023-02-28T00:44:24;7.85;;;4.90;;
7783;SDS011;19359;51.402;6.778;2023-02-28T00:46:51;4.60;;;4.25;;
7783;SDS011;19359;51.402;6.778;2023-02-28T00:49:20;7.47;;;4.60;;
7783;SDS011;19359;51.402;6.778;2023-02-28T00:51:47;6.88;;;4.45;;
7783;SDS011;19359;51.402;6.778;2023-02-28T00:54:14;11.60;;;3.72;;
7783;SDS011;19359;51.402;6.778;2023-02-28T00:56:41;5.35;;;4.45;;
7783;SDS011;19359;51.402;6.778;2023-02-28T00:59:08;4.88;;;4.40;;
7783;SDS011;19359;51.402;6.778;2023-02-28T01:01:36;5.35;;;4.22;;
7783;SDS011;19359;51.402;6.778;2023-02-28T01:04:03;9.23;;;4.20;;
7783;SDS011;19359;51.402;6.778;2023-02-28T01:06:31;4.63;;;4.22;;
7783;SDS011;19359;51.402;6.778;2023-02-28T01:08:58;6.07;;;4.53;;
7783;SDS011;19359;51.402;6.778;2023-02-28T01:11:25;9.90;;;4.60;;
7783;SDS011;19359;51.402;6.778;2023-02-28T01:13:52;7.88;;;4.85;;
7783;SDS011;19359;51.402;6.778;2023-02-28T01:16:19;6.82;;;4.13;;
7783;SDS011;19359;51.402;6.778;2023-02-28T01:18:46;6.88;;;5.40;;
7783;SDS011;19359;51.402;6.778;2023-02-28T01:21:14;5.93;;;4.10;;
7783;SDS011;19359;51.402;6.778;2023-02-28T01:23:43;8.27;;;4.22;;
7783;SDS011;19359;51.402;6.778;2023-02-28T01:26:12;5.00;;;4.03;;
7783;SDS011;19359;51.402;6.778;2023-02-28T01:28:40;6.82;;;4.43;;
7783;SDS011;19359;51.402;6.778;2023-02-28T01:31:08;9.35;;;4.20;;
7783;SDS011;19359;51.402;6.778;2023-02-28T01:33:35;5.60;;;4.22;;
7783;SDS011;19359;51.402;6.778;2023-02-28T01:36:03;7.72;;;4.05;;
7783;SDS011;19359;51.402;6.778;2023-02-28T01:38:32;4.72;;;3.80;;
7783;SDS011;19359;51.402;6.778;2023-02-28T01:41:00;6.28;;;3.75;;
7783;SDS011;19359;51.402;6.778;2023-02-28T01:43:28;6.30;;;3.85;;
7783;SDS011;19359;51.402;6.778;2023-02-28T01:45:57;4.03;;;3.60;;
7783;SDS011;19359;51.402;6.778;2023-02-28T01:48:25;4.25;;;3.17;;
7783;SDS011;19359;51.402;6.778;2023-02-28T01:50:54;7.05;;;3.33;;
7783;SDS011;19359;51.402;6.778;2023-02-28T01:53:26;6.10;;;3.60;;
7783;SDS011;19359;51.402;6.778;2023-02-28T01:55:58;5.55;;;2.95;;
7783;SDS011;19359;51.402;6.778;2023-02-28T01:58:27;7.60;;;3.17;;
7783;SDS011;19359;51.402;6.778;2023-02-28T02:00:54;3.88;;;3.50;;
7783;SDS011;19359;51.402;6.778;2023-02-28T02:03:22;3.30;;;3.08;;
7783;SDS011;19359;51.402;6.778;2023-02-28T02:05:49;10.18;;;3.97;;
7783;SDS011;19359;51.402;6.778;2023-02-28T02:08:17;3.00;;;2.80;;
7783;SDS011;19359;51.402;6.778;2023-02-28T02:10:46;4.65;;;3.63;;
7783;SDS011;19359;51.402;6.778;2023-02-28T02:13:19;3.17;;;2.90;;
7783;SDS011;19359;51.402;6.778;2023-02-28T02:15:53;4.03;;;2.47;;
7783;SDS011;19359;51.402;6.778;2023-02-28T02:18:27;7.15;;;3.30;;
7783;SDS011;19359;51.402;6.778;2023-02-28T02:21:08;6.22;;;2.75;;
7783;SDS011;19359;51.402;6.778;2023-02-28T02:24:11;3.17;;;2.30;;
7783;SDS011;19359;51.402;6.778;2023-02-28T02:27:03;2.83;;;2.58;;
7783;SDS011;19359;51.402;6.778;2023-02-28T02:29:42;3.45;;;2.58;;
7783;SDS011;19359;51.402;6.778;2023-02-28T02:35:26;3.15;;;2.20;;
7783;SDS011;19359;51.402;6.778;2023-02-28T02:37:57;3.38;;;2.22;;
7783;SDS011;19359;51.402;6.778;2023-02-28T02:40:27;5.03;;;2.33;;
7783;SDS011;19359;51.402;6.778;2023-02-28T02:43:02;3.05;;;2.53;;
7783;SDS011;19359;51.402;6.778;2023-02-28T02:45:34;4.25;;;2.92;;
7783;SDS011;19359;51.402;6.778;2023-02-28T02:48:06;2.85;;;2.60;;
7783;SDS011;19359;51.402;6.778;2023-02-28T02:50:39;2.47;;;2.17;;
7783;SDS011;19359;51.402;6.778;2023-02-28T02:53:10;3.78;;;2.55;;
7783;SDS011;19359;51.402;6.778;2023-02-28T02:55:39;5.93;;;2.60;;
7783;SDS011;19359;51.402;6.778;2023-02-28T02:58:10;4.38;;;2.47;;
7783;SDS011;19359;51.402;6.778;2023-02-28T03:00:41;3.63;;;2.67;;
7783;SDS011;19359;51.402;6.778;2023-02-28T03:03:11;3.22;;;2.60;;
7783;SDS011;19359;51.402;6.778;2023-02-28T03:05:43;2.83;;;2.58;;
7783;SDS011;19359;51.402;6.778;2023-02-28T03:08:12;4.47;;;2.92;;
7783;SDS011;19359;51.402;6.778;2023-02-28T03:10:39;2.45;;;2.25;;
7783;SDS011;19359;51.402;6.778;2023-02-28T03:13:13;3.55;;;2.67;;
7783;SDS011;19359;51.402;6.778;2023-02-28T03:16:03;2.15;;;1.92;;
7783;SDS011;19359;51.402;6.778;2023-02-28T03:18:47;7.93;;;2.53;;
7783;SDS011;19359;51.402;6.778;2023-02-28T03:21:26;2.75;;;2.58;;
7783;SDS011;19359;51.402;6.778;2023-02-28T03:24:01;4.55;;;2.40;;
7783;SDS011;19359;51.402;6.778;2023-02-28T03:26:31;3.08;;;2.47;;
7783;SDS011;19359;51.402;6.778;2023-02-28T03:29:06;4.82;;;2.25;;
7783;SDS011;19359;51.402;6.778;2023-02-28T03:31:43;2.85;;;2.03;;
7783;SDS011;19359;51.402;6.778;2023-02-28T03:34:16;2.90;;;2.28;;
7783;SDS011;19359;51.402;6.778;2023-02-28T03:36:48;2.92;;;2.72;;
7783;SDS011;19359;51.402;6.778;2023-02-28T03:39:20;3.25;;;2.25;;
7783;SDS011;19359;51.402;6.778;2023-02-28T03:41:49;3.55;;;2.42;;
7783;SDS011;19359;51.402;6.778;2023-02-28T03:44:20;4.43;;;2.53;;
7783;SDS011;19359;51.402;6.778;2023-02-28T03:46:52;4.93;;;2.45;;
7783;SDS011;19359;51.402;6.778;2023-02-28T03:49:24;6.57;;;2.85;;
7783;SDS011;19359;51.402;6.778;2023-02-28T03:51:55;2.60;;;1.95;;
7783;SDS011;19359;51.402;6.778;2023-02-28T03:54:25;7.20;;;2.83;;
7783;SDS011;19359;51.402;6.778;2023-02-28T03:56:56;4.30;;;2.28;;
7783;SDS011;19359;51.402;6.778;2023-02-28T03:59:29;3.85;;;2.55;;
7783;SDS011;19359;51.402;6.778;2023-02-28T04:02:00;2.17;;;1.80;;
7783;SDS011;19359;51.402;6.778;2023-02-28T04:04:27;3.35;;;1.92;;
7783;SDS011;19359;51.402;6.778;2023-02-28T04:07:02;3.28;;;1.70;;
7783;SDS011;19359;51.402;6.778;2023-02-28T04:09:30;2.60;;;2.40;;
7783;SDS011;19359;51.402;6.778;2023-02-28T04:11:57;4.32;;;2.20;;
7783;SDS011;19359;51.402;6.778;2023-02-28T04:14:24;2.15;;;1.88;;
7783;SDS011;19359;51.402;6.778;2023-02-28T04:16:51;2.67;;;1.65;;
7783;SDS011;19359;51.402;6.778;2023-02-28T04:19:18;2.63;;;2.42;;
7783;SDS011;19359;51.402;6.778;2023-02-28T04:21:46;2.30;;;2.10;;
7783;SDS011;19359;51.402;6.778;2023-02-28T04:24:16;2.08;;;1.90;;
7783;SDS011;19359;51.402;6.778;2023-02-28T04:26:45;3.97;;;2.08;;
7783;SDS011;19359;51.402;6.778;2023-02-28T04:29:13;5.78;;;1.83;;
7783;SDS011;19359;51.402;6.778;2023-02-28T04:31:43;2.38;;;2.17;;
7783;SDS011;19359;51.402;6.778;2023-02-28T04:34:10;4.45;;;2.17;;
7783;SDS011;19359;51.402;6.778;2023-02-28T04:36:37;3.88;;;2.53;;
7783;SDS011;19359;51.402;6.778;2023-02-28T04:39:04;2.45;;;2.22;;
7783;SDS011;19359;51.402;6.778;2023-02-28T04:41:32;5.82;;;1.67;;
7783;SDS011;19359;51.402;6.778;2023-02-28T04:43:59;2.47;;;2.00;;
7783;SDS011;19359;51.402;6.778;2023-02-28T04:46:25;4.50;;;2.42;;
7783;SDS011;19359;51.402;6.778;2023-02-28T04:48:52;1.77;;;1.77;;
7783;SDS011;19359;51.402;6.778;2023-02-28T04:51:19;2.53;;;2.38;;
7783;SDS011;19359;51.402;6.778;2023-02-28T04:53:46;4.03;;;2.65;;
7783;SDS011;19359;51.402;6.778;2023-02-28T04:56:14;6.00;;;1.95;;
7783;SDS011;19359;51.402;6.778;2023-02-28T04:58:43;3.95;;;2.42;;
7783;SDS011;19359;51.402;6.778;2023-02-28T05:01:18;4.15;;;2.53;;
7783;SDS011;19359;51.402;6.778;2023-02-28T05:03:46;4.03;;;2.15;;
7783;SDS011;19359;51.402;6.778;2023-02-28T05:06:14;4.05;;;2.42;;
7783;SDS011;19359;51.402;6.778;2023-02-28T05:08:41;2.63;;;1.67;;
7783;SDS011;19359;51.402;6.778;2023-02-28T05:11:11;7.82;;;2.70;;
7783;SDS011;19359;51.402;6.778;2023-02-28T05:13:41;2.83;;;2.58;;
7783;SDS011;19359;51.402;6.778;2023-02-28T05:16:09;3.40;;;2.45;;
7783;SDS011;19359;51.402;6.778;2023-02-28T05:18:36;3.05;;;2.30;;
7783;SDS011;19359;51.402;6.778;2023-02-28T05:21:03;6.72;;;2.75;;
7783;SDS011;19359;51.402;6.778;2023-02-28T05:23:30;2.35;;;1.88;;
7783;SDS011;19359;51.402;6.778;2023-02-28T05:25:57;2.38;;;1.92;;
7783;SDS011;19359;51.402;6.778;2023-02-28T05:28:24;1.95;;;1.77;;
7783;SDS011;19359;51.402;6.778;2023-02-28T05:30:50;1.80;;;1.70;;
7783;SDS011;19359;51.402;6.778;2023-02-28T05:33:18;4.95;;;2.45;;
7783;SDS011;19359;51.402;6.778;2023-02-28T05:35:45;2.95;;;2.10;;
7783;SDS011;19359;51.402;6.778;2023-02-28T05:38:12;1.85;;;1.58;;
7783;SDS011;19359;51.402;6.778;2023-02-28T05:40:39;2.50;;;1.90;;
7783;SDS011;19359;51.402;6.778;2023-02-28T05:43:07;2.95;;;2.17;;
7783;SDS011;19359;51.402;6.778;2023-02-28T05:45:36;2.90;;;1.80;;
7783;SDS011;19359;51.402;6.778;2023-02-28T05:48:03;2.13;;;1.90;;
7783;SDS011;19359;51.402;6.778;2023-02-28T05:50:31;2.75;;;1.95;;
7783;SDS011;19359;51.402;6.778;2023-02-28T05:52:58;4.10;;;1.98;;
7783;SDS011;19359;51.402;6.778;2023-02-28T05:55:25;1.40;;;1.40;;
7783;SDS011;19359;51.402;6.778;2023-02-28T05:57:52;1.45;;;1.35;;
7783;SDS011;19359;51.402;6.778;2023-02-28T06:00:19;1.48;;;1.25;;
7783;SDS011;19359;51.402;6.778;2023-02-28T06:02:46;1.88;;;1.65;;
7783;SDS011;19359;51.402;6.778;2023-02-28T06:05:14;1.63;;;1.52;;
7783;SDS011;19359;51.402;6.778;2023-02-28T06:07:44;1.40;;;1.30;;
7783;SDS011;19359;51.402;6.778;2023-02-28T06:10:11;2.35;;;1.65;;
7783;SDS011;19359;51.402;6.778;2023-02-28T06:12:38;5.07;;;1.90;;
7783;SDS011;19359;51.402;6.778;2023-02-28T06:15:07;1.50;;;1.40;;
7783;SDS011;19359;51.402;6.778;2023-02-28T06:17:37;1.77;;;1.58;;
7783;SDS011;19359;51.402;6.778;2023-02-28T06:20:04;1.63;;;1.52;;
7783;SDS011;19359;51.402;6.778;2023-02-28T06:22:33;1.65;;;1.55;;
7783;SDS011;19359;51.402;6.778;2023-02-28T06:25:02;2.47;;;1.58;;
7783;SDS011;19359;51.402;6.778;2023-02-28T06:27:28;2.42;;;1.70;;
7783;SDS011;19359;51.402;6.778;2023-02-28T06:29:57;1.60;;;1.60;;
7783;SDS011;19359;51.402;6.778;2023-02-28T06:32:23;4.97;;;2.22;;
7783;SDS011;19359;51.402;6.778;2023-02-28T06:34:50;2.03;;;1.92;;
7783;SDS011;19359;51.402;6.778;2023-02-28T06:37:17;2.83;;;2.08;;
7783;SDS011;19359;51.402;6.778;2023-02-28T06:39:45;7.70;;;2.10;;
7783;SDS011;19359;51.402;6.778;2023-02-28T06:42:13;4.30;;;2.08;;
7783;SDS011;19359;51.402;6.778;2023-02-28T06:44:39;1.88;;;1.77;;
7783;SDS011;19359;51.402;6.778;2023-02-28T06:47:07;2.67;;;2.40;;
7783;SDS011;19359;51.402;6.778;2023-02-28T06:49:35;11.70;;;1.90;;
7783;SDS011;19359;51.402;6.778;2023-02-28T06:52:04;5.10;;;1.70;;
7783;SDS011;19359;51.402;6.778;2023-02-28T06:54:30;1.55;;;1.38;;
7783;SDS011;19359;51.402;6.778;2023-02-28T06:56:57;1.70;;;1.60;;
7783;SDS011;19359;51.402;6.778;2023-02-28T06:59:25;2.13;;;1.80;;
7783;SDS011;19359;51.402;6.778;2023-02-28T07:01:52;2.90;;;1.85;;
7783;SDS011;19359;51.402;6.778;2023-02-28T07:04:20;4.03;;;1.98;;
7783;SDS011;19359;51.402;6.778;2023-02-28T07:06:47;4.15;;;2.60;;
7783;SDS011;19359;51.402;6.778;2023-02-28T07:09:13;2.42;;;1.88;;
7783;SDS011;19359;51.402;6.778;2023-02-28T07:11:40;5.07;;;2.67;;
7783;SDS011;19359;51.402;6.778;2023-02-28T07:14:08;2.22;;;1.75;;
7783;SDS011;19359;51.402;6.778;2023-02-28T07:16:36;4.47;;;1.88;;
7783;SDS011;19359;51.402;6.778;2023-02-28T07:19:03;5.03;;;1.50;;
7783;SDS011;19359;51.402;6.778;2023-02-28T07:21:30;2.22;;;1.90;;
7783;SDS011;19359;51.402;6.778;2023-02-28T07:23:57;5.45;;;2.15;;
7783;SDS011;19359;51.402;6.778;2023-02-28T07:26:23;3.88;;;1.88;;
7783;SDS011;19359;51.402;6.778;2023-02-28T07:28:50;3.17;;;1.88;;
7783;SDS011;19359;51.402;6.778;2023-02-28T07:31:17;5.35;;;2.38;;
7783;SDS011;19359;51.402;6.778;2023-02-28T07:33:46;1.95;;;1.85;;
7783;SDS011;19359;51.402;6.778;2023-02-28T07:36:13;2.20;;;2.10;;
7783;SDS011;19359;51.402;6.778;2023-02-28T07:38:44;2.17;;;1.98;;
7783;SDS011;19359;51.402;6.778;2023-02-28T07:41:13;9.38;;;2.10;;
7783;SDS011;19359;51.402;6.778;2023-02-28T07:43:40;3.08;;;2.88;;
7783;SDS011;19359;51.402;6.778;2023-02-28T07:46:08;3.17;;;2.03;;
7783;SDS011;19359;51.402;6.778;2023-02-28T07:48:36;1.92;;;1.58;;
7783;SDS011;19359;51.402;6.778;2023-02-28T07:51:04;3.15;;;1.70;;
7783;SDS011;19359;51.402;6.778;2023-02-28T07:53:31;5.15;;;2.30;;
7783;SDS011;19359;51.402;6.778;2023-02-28T07:55:59;5.18;;;1.88;;
7783;SDS011;19359;51.402;6.778;2023-02-28T07:58:27;4.28;;;1.98;;
7783;SDS011;19359;51.402;6.778;2023-02-28T08:00:55;3.30;;;2.35;;
7783;SDS011;19359;51.402;6.778;2023-02-28T08:03:23;7.40;;;2.50;;
7783;SDS011;19359;51.402;6.778;2023-02-28T08:05:50;2.78;;;1.85;;
7783;SDS011;19359;51.402;6.778;2023-02-28T08:08:20;2.20;;;2.10;;
7783;SDS011;19359;51.402;6.778;2023-02-28T08:10:47;2.50;;;2.30;;
7783;SDS011;19359;51.402;6.778;2023-02-28T08:13:13;3.95;;;1.88;;
7783;SDS011;19359;51.402;6.778;2023-02-28T08:15:40;1.98;;;1.83;;
7783;SDS011;19359;51.402;6.778;2023-02-28T08:18:08;4.10;;;2.78;;
7783;SDS011;19359;51.402;6.778;2023-02-28T08:20:34;3.17;;;2.63;;
7783;SDS011;19359;51.402;6.778;2023-02-28T08:23:01;3.03;;;1.95;;
7783;SDS011;19359;51.402;6.778;2023-02-28T08:25:29;2.28;;;2.17;;
7783;SDS011;19359;51.402;6.778;2023-02-28T08:27:56;4.18;;;2.30;;
7783;SDS011;19359;51.402;6.778;2023-02-28T08:30:22;2.00;;;1.27;;
7783;SDS011;19359;51.402;6.778;2023-02-28T08:32:49;4.60;;;1.88;;
7783;SDS011;19359;51.402;6.778;2023-02-28T08:35:16;5.25;;;2.05;;
7783;SDS011;19359;51.402;6.778;2023-02-28T08:37:43;2.35;;;1.77;;
7783;SDS011;19359;51.402;6.778;2023-02-28T08:40:10;2.90;;;2.70;;
7783;SDS011;19359;51.402;6.778;2023-02-28T08:42:44;6.47;;;1.27;;
7783;SDS011;19359;51.402;6.778;2023-02-28T08:45:11;8.55;;;1.77;;
7783;SDS011;19359;51.402;6.778;2023-02-28T08:47:37;5.25;;;2.20;;
7783;SDS011;19359;51.402;6.778;2023-02-28T08:50:05;2.00;;;1.90;;
7783;SDS011;19359;51.402;6.778;2023-02-28T08:52:32;5.88;;;2.15;;
7783;SDS011;19359;51.402;6.778;2023-02-28T08:54:58;8.35;;;2.05;;
7783;SDS011;19359;51.402;6.778;2023-02-28T08:57:26;3.85;;;1.30;;
7783;SDS011;19359;51.402;6.778;2023-02-28T08:59:54;1.65;;;1.55;;
7783;SDS011;19359;51.402;6.778;2023-02-28T09:02:20;2.88;;;2.30;;
7783;SDS011;19359;51.402;6.778;2023-02-28T09:04:47;3.85;;;1.92;;
7783;SDS011;19359;51.402;6.778;2023-02-28T09:07:14;2.05;;;1.42;;
7783;SDS011;19359;51.402;6.778;2023-02-28T09:09:41;1.50;;;1.20;;
7783;SDS011;19359;51.402;6.778;2023-02-28T09:12:18;2.03;;;1.05;;
7783;SDS011;19359;51.402;6.778;2023-02-28T09:14:45;1.50;;;1.40;;
7783;SDS011;19359;51.402;6.778;2023-02-28T09:17:13;3.88;;;1.58;;
7783;SDS011;19359;51.402;6.778;2023-02-28T09:19:40;1.33;;;1.25;;
7783;SDS011;19359;51.402;6.778;2023-02-28T09:22:07;1.17;;;1.10;;
7783;SDS011;19359;51.402;6.778;2023-02-28T09:24:35;1.13;;;0.80;;
7783;SDS011;19359;51.402;6.778;2023-02-28T09:27:01;4.97;;;1.48;;
7783;SDS011;19359;51.402;6.778;2023-02-28T09:29:28;1.25;;;1.23;;
7783;SDS011;19359;51.402;6.778;2023-02-28T09:31:55;0.93;;;0.93;;
7783;SDS011;19359;51.402;6.778;2023-02-28T09:34:24;2.47;;;0.98;;
7783;SDS011;19359;51.402;6.778;2023-02-28T09:36:51;1.20;;;1.20;;
7783;SDS011;19359;51.402;6.778;2023-02-28T09:39:19;1.65;;;0.98;;
7783;SDS011;19359;51.402;6.778;2023-02-28T09:41:47;1.05;;;0.90;;
7783;SDS011;19359;51.402;6.778;2023-02-28T09:44:18;0.98;;;0.98;;
7783;SDS011;19359;51.402;6.778;2023-02-28T09:46:51;2.60;;;1.55;;
7783;SDS011;19359;51.402;6.778;2023-02-28T09:49:27;4.40;;;1.20;;
7783;SDS011;19359;51.402;6.778;2023-02-28T09:52:01;1.48;;;1.08;;
7783;SDS011;19359;51.402;6.778;2023-02-28T09:54:30;0.98;;;0.98;;
7783;SDS011;19359;51.402;6.778;2023-02-28T09:56:59;2.53;;;1.17;;
7783;SDS011;19359;51.402;6.778;2023-02-28T09:59:31;1.45;;;1.45;;
7783;SDS011;19359;51.402;6.778;2023-02-28T10:02:13;4.68;;;1.52;;
7783;SDS011;19359;51.402;6.778;2023-02-28T10:04:49;1.65;;;0.90;;
7783;SDS011;19359;51.402;6.778;2023-02-28T10:07:23;1.00;;;0.65;;
7783;SDS011;19359;51.402;6.778;2023-02-28T10:10:04;1.75;;;1.60;;
7783;SDS011;19359;51.402;6.778;2023-02-28T10:12:40;0.88;;;0.88;;
7783;SDS011;19359;51.402;6.778;2023-02-28T10:15:12;0.82;;;0.82;;
7783;SDS011;19359;51.402;6.778;2023-02-28T10:17:41;0.77;;;0.68;;
7783;SDS011;19359;51.402;6.778;2023-02-28T10:20:11;1.63;;;1.00;;
7783;SDS011;19359;51.402;6.778;2023-02-28T10:22:41;2.72;;;1.05;;
7783;SDS011;19359;51.402;6.778;2023-02-28T10:25:17;0.60;;;0.60;;
7783;SDS011;19359;51.402;6.778;2023-02-28T10:27:45;0.73;;;0.73;;
7783;SDS011;19359;51.402;6.778;2023-02-28T10:30:12;1.40;;;1.17;;
7783;SDS011;19359;51.402;6.778;2023-02-28T10:32:39;1.40;;;1.20;;
7783;SDS011;19359;51.402;6.778;2023-02-28T10:35:15;0.52;;;0.43;;
7783;SDS011;19359;51.402;6.778;2023-02-28T10:37:44;0.70;;;0.70;;
7783;SDS011;19359;51.402;6.778;2023-02-28T10:40:24;2.25;;;0.98;;
7783;SDS011;19359;51.402;6.778;2023-02-28T10:42:54;2.78;;;0.77;;
7783;SDS011;19359;51.402;6.778;2023-02-28T10:45:23;0.88;;;0.75;;
7783;SDS011;19359;51.402;6.778;2023-02-28T10:47:52;1.15;;;0.80;;
7783;SDS011;19359;51.402;6.778;2023-02-28T10:50:29;0.75;;;0.70;;
7783;SDS011;19359;51.402;6.778;2023-02-28T10:53:10;0.60;;;0.60;;
7783;SDS011;19359;51.402;6.778;2023-02-28T10:55:55;0.80;;;0.80;;
7783;SDS011;19359;51.402;6.778;2023-02-28T10:58:24;0.82;;;0.70;;
7783;SDS011;19359;51.402;6.778;2023-02-28T11:00:53;1.02;;;0.43;;
7783;SDS011;19359;51.402;6.778;2023-02-28T11:03:24;3.15;;;1.00;;
7783;SDS011;19359;51.402;6.778;2023-02-28T11:05:57;0.43;;;0.43;;
7783;SDS011;19359;51.402;6.778;2023-02-28T11:08:25;0.70;;;0.70;;
7783;SDS011;19359;51.402;6.778;2023-02-28T11:10:55;3.20;;;1.00;;
7783;SDS011;19359;51.402;6.778;2023-02-28T11:13:25;0.70;;;0.65;;
7783;SDS011;19359;51.402;6.778;2023-02-28T11:15:54;0.68;;;0.68;;
7783;SDS011;19359;51.402;6.778;2023-02-28T11:18:24;1.75;;;0.70;;
7783;SDS011;19359;51.402;6.778;2023-02-28T11:20:57;0.77;;;0.77;;
7783;SDS011;19359;51.402;6.778;2023-02-28T11:23:26;4.60;;;0.77;;
7783;SDS011;19359;51.402;6.778;2023-02-28T11:25:54;0.77;;;0.77;;
7783;SDS011;19359;51.402;6.778;2023-02-28T11:28:25;0.60;;;0.60;;
7783;SDS011;19359;51.402;6.778;2023-02-28T11:31:00;0.70;;;0.70;;
7783;SDS011;19359;51.402;6.778;2023-02-28T11:33:32;0.80;;;0.80;;
7783;SDS011;19359;51.402;6.778;2023-02-28T11:36:11;1.77;;;0.63;;
7783;SDS011;19359;51.402;6.778;2023-02-28T11:38:39;0.88;;;0.70;;
7783;SDS011;19359;51.402;6.778;2023-02-28T11:41:10;0.70;;;0.70;;
7783;SDS011;19359;51.402;6.778;2023-02-28T11:43:45;0.82;;;0.75;;
7783;SDS011;19359;51.402;6.778;2023-02-28T11:46:20;3.42;;;0.63;;
7783;SDS011;19359;51.402;6.778;2023-02-28T11:48:58;0.75;;;0.75;;
7783;SDS011;19359;51.402;6.778;2023-02-28T11:51:33;0.70;;;0.70;;
7783;SDS011;19359;51.402;6.778;2023-02-28T11:54:17;0.65;;;0.65;;
7783;SDS011;19359;51.402;6.778;2023-02-28T11:56:55;3.58;;;1.02;;
7783;SDS011;19359;51.402;6.778;2023-02-28T11:59:29;2.85;;;0.95;;
7783;SDS011;19359;51.402;6.778;2023-02-28T12:02:08;0.80;;;0.80;;
7783;SDS011;19359;51.402;6.778;2023-02-28T12:04:57;1.45;;;1.10;;
7783;SDS011;19359;51.402;6.778;2023-02-28T12:07:39;2.05;;;1.20;;
7783;SDS011;19359;51.402;6.778;2023-02-28T12:10:16;1.55;;;0.80;;
7783;SDS011;19359;51.402;6.778;2023-02-28T12:12:49;0.73;;;0.70;;
7783;SDS011;19359;51.402;6.778;2023-02-28T12:15:39;1.08;;;0.98;;
7783;SDS011;19359;51.402;6.778;2023-02-28T12:18:25;1.17;;;0.93;;
7783;SDS011;19359;51.402;6.778;2023-02-28T12:21:11;0.77;;;0.77;;
7783;SDS011;19359;51.402;6.778;2023-02-28T12:23:56;0.88;;;0.85;;
7783;SDS011;19359;51.402;6.778;2023-02-28T12:26:36;0.93;;;0.93;;
7783;SDS011;19359;51.402;6.778;2023-02-28T12:29:09;2.22;;;0.88;;
7783;SDS011;19359;51.402;6.778;2023-02-28T12:31:41;0.70;;;0.70;;
7783;SDS011;19359;51.402;6.778;2023-02-28T12:34:09;0.82;;;0.82;;
7783;SDS011;19359;51.402;6.778;2023-02-28T12:36:40;0.90;;;0.90;;
7783;SDS011;19359;51.402;6.778;2023-02-28T12:39:12;2.25;;;0.88;;
7783;SDS011;19359;51.402;6.778;2023-02-28T12:41:45;0.90;;;0.90;;
7783;SDS011;19359;51.402;6.778;2023-02-28T12:44:16;1.63;;;0.77;;
7783;SDS011;19359;51.402;6.778;2023-02-28T12:46:46;1.95;;;1.10;;
7783;SDS011;19359;51.402;6.778;2023-02-28T12:49:16;0.82;;;0.80;;
7783;SDS011;19359;51.402;6.778;2023-02-28T12:51:47;1.02;;;1.02;;
7783;SDS011;19359;51.402;6.778;2023-02-28T12:54:19;1.02;;;1.02;;
7783;SDS011;19359;51.402;6.778;2023-02-28T12:56:53;0.82;;;0.82;;
7783;SDS011;19359;51.402;6.778;2023-02-28T12:59:25;1.00;;;1.00;;
7783;SDS011;19359;51.402;6.778;2023-02-28T13:05:07;1.15;;;1.08;;
7783;SDS011;19359;51.402;6.778;2023-02-28T13:08:08;1.02;;;1.02;;
7783;SDS011;19359;51.402;6.778;2023-02-28T13:10:55;1.13;;;1.08;;
7783;SDS011;19359;51.402;6.778;2023-02-28T13:13:22;1.55;;;0.93;;
7783;SDS011;19359;51.402;6.778;2023-02-28T13:15:57;1.23;;;1.02;;
7783;SDS011;19359;51.402;6.778;2023-02-28T13:18:34;1.60;;;1.23;;
7783;SDS011;19359;51.402;6.778;2023-02-28T13:21:04;1.50;;;0.93;;
7783;SDS011;19359;51.402;6.778;2023-02-28T13:23:38;1.70;;;1.00;;
7783;SDS011;19359;51.402;6.778;2023-02-28T13:26:24;4.32;;;1.10;;
7783;SDS011;19359;51.402;6.778;2023-02-28T13:29:30;4.35;;;1.10;;
7783;SDS011;19359;51.402;6.778;2023-02-28T13:34:47;1.20;;;1.10;;
7783;SDS011;19359;51.402;6.778;2023-02-28T13:38:12;2.88;;;1.92;;
7783;SDS011;19359;51.402;6.778;2023-02-28T13:40:51;1.75;;;1.10;;
7783;SDS011;19359;51.402;6.778;2023-02-28T13:43:19;0.90;;;0.90;;
7783;SDS011;19359;51.402;6.778;2023-02-28T13:46:05;1.98;;;1.13;;
7783;SDS011;19359;51.402;6.778;2023-02-28T13:48:36;2.25;;;1.20;;
7783;SDS011;19359;51.402;6.778;2023-02-28T13:54:07;1.13;;;1.13;;
7783;SDS011;19359;51.402;6.778;2023-02-28T13:56:52;0.80;;;0.80;;
7783;SDS011;19359;51.402;6.778;2023-02-28T13:59:33;2.05;;;1.38;;
7783;SDS011;19359;51.402;6.778;2023-02-28T14:05:01;0.90;;;0.90;;
7783;SDS011;19359;51.402;6.778;2023-02-28T14:07:32;1.60;;;1.42;;
7783;SDS011;19359;51.402;6.778;2023-02-28T14:10:04;4.03;;;2.47;;
7783;SDS011;19359;51.402;6.778;2023-02-28T14:15:27;1.60;;;1.30;;
7783;SDS011;19359;51.402;6.778;2023-02-28T14:18:02;1.80;;;1.38;;
7783;SDS011;19359;51.402;6.778;2023-02-28T14:20:37;2.50;;;1.65;;
7783;SDS011;19359;51.402;6.778;2023-02-28T14:23:08;1.38;;;1.23;;
7783;SDS011;19359;51.402;6.778;2023-02-28T14:25:44;1.42;;;1.38;;
7783;SDS011;19359;51.402;6.778;2023-02-28T14:28:21;3.65;;;1.33;;
7783;SDS011;19359;51.402;6.778;2023-02-28T14:31:06;1.55;;;1.45;;
7783;SDS011;19359;51.402;6.778;2023-02-28T14:33:43;2.90;;;1.77;;
7783;SDS011;19359;51.402;6.778;2023-02-28T14:36:23;1.20;;;1.20;;
7783;SDS011;19359;51.402;6.778;2023-02-28T14:38:54;2.38;;;1.27;;
7783;SDS011;19359;51.402;6.778;2023-02-28T14:41:24;1.30;;;1.30;;
7783;SDS011;19359;51.402;6.778;2023-02-28T14:43:56;1.17;;;1.10;;
7783;SDS011;19359;51.402;6.778;2023-02-28T14:46:26;1.75;;;1.60;;
7783;SDS011;19359;51.402;6.778;2023-02-28T14:48:56;2.58;;;1.67;;
7783;SDS011;19359;51.402;6.778;2023-02-28T14:51:23;2.00;;;1.73;;
7783;SDS011;19359;51.402;6.778;2023-02-28T14:53:53;1.65;;;1.50;;
7783;SDS011;19359;51.402;6.778;2023-02-28T14:56:24;2.15;;;1.55;;
7783;SDS011;19359;51.402;6.778;2023-02-28T14:58:55;1.42;;;1.33;;
7783;SDS011;19359;51.402;6.778;2023-02-28T15:01:23;1.42;;;1.40;;
7783;SDS011;19359;51.402;6.778;2023-02-28T15:03:58;1.95;;;1.55;;
7783;SDS011;19359;51.402;6.778;2023-02-28T15:06:26;0.82;;;0.82;;
7783;SDS011;19359;51.402;6.778;2023-02-28T15:09:14;1.52;;;1.50;;
7783;SDS011;19359;51.402;6.778;2023-02-28T15:11:44;3.33;;;1.55;;
7783;SDS011;19359;51.402;6.778;2023-02-28T15:14:17;2.45;;;1.67;;
7783;SDS011;19359;51.402;6.778;2023-02-28T15:16:46;1.45;;;1.35;;
7783;SDS011;19359;51.402;6.778;2023-02-28T15:19:17;1.15;;;1.10;;
7783;SDS011;19359;51.402;6.778;2023-02-28T15:21:49;1.45;;;1.45;;
7783;SDS011;19359;51.402;6.778;2023-02-28T15:24:21;1.48;;;1.38;;
7783;SDS011;19359;51.402;6.778;2023-02-28T15:26:55;1.20;;;1.00;;
7783;SDS011;19359;51.402;6.778;2023-02-28T15:29:25;1.27;;;1.27;;
7783;SDS011;19359;51.402;6.778;2023-02-28T15:31:56;1.63;;;1.17;;
7783;SDS011;19359;51.402;6.778;2023-02-28T15:34:32;2.75;;;1.70;;
7783;SDS011;19359;51.402;6.778;2023-02-28T15:37:01;1.95;;;1.23;;
7783;SDS011;19359;51.402;6.778;2023-02-28T15:39:48;1.90;;;1.80;;